Time;durP1;ratioP1;P1;durP2;ratioP2;P2;SDS_P1;SDS_P2;PMS_P1;PMS_P2;Temp;Humidity;BMP_temperature;BMP_pressure;BME280_temperature;BME280_humidity;BME280_pressure;Samples;Min_cycle;Max_cycle;Signal;HPM_P1;HPM_P2
2022/04/15 00:01:12;;;;;;;11.32;7.28;;;;;;;;;;8196508;28;20042;-71
2022/04/15 00:09:31;;;;;;;8.85;7.28;;;;;;;;;;8199809;28;20038;-71
2022/04/15 00:13:32;;;;;;;11.30;7.07;;;;;;;;;;8199872;28;20729;-70
2022/04/15 00:17:33;;;;;;;10.35;7.60;;;;;;;;;;8197383;28;20808;-71
2022/04/15 00:21:33;;;;;;;9.38;7.35;;;;;;;;;;8197059;28;20031;-71
2022/04/15 00:25:33;;;;;;;10.65;7.40;;;;;;;;;;8197529;28;20116;-71
2022/04/15 00:29:34;;;;;;;10.43;7.78;;;;;;;;;;8199257;28;20734;-71
2022/04/15 00:33:34;;;;;;;8.93;7.20;;;;;;;;;;8197507;28;20035;-71
2022/04/15 00:37:34;;;;;;;9.98;7.40;;;;;;;;;;8200132;28;20089;-71
2022/04/15 00:41:34;;;;;;;10.95;7.65;;;;;;;;;;8198276;28;20026;-71
2022/04/15 00:45:35;;;;;;;10.70;7.50;;;;;;;;;;8195923;28;20031;-71
2022/04/15 00:49:35;;;;;;;8.40;7.15;;;;;;;;;;8195690;28;21848;-70
2022/04/15 00:53:38;;;;;;;7.83;6.90;;;;;;;;;;8197370;28;20484;-70
2022/04/15 00:57:43;;;;;;;12.20;8.00;;;;;;;;;;8196135;28;20794;-70
2022/04/15 01:01:43;;;;;;;8.10;7.30;;;;;;;;;;8197850;28;20077;-71
2022/04/15 01:05:44;;;;;;;8.45;7.03;;;;;;;;;;8190710;28;20023;-71
2022/04/15 01:09:47;;;;;;;9.20;6.82;;;;;;;;;;8196809;28;20029;-71
2022/04/15 01:13:47;;;;;;;10.52;7.72;;;;;;;;;;8197409;28;21077;-70
2022/04/15 01:17:47;;;;;;;10.57;6.47;;;;;;;;;;8197762;28;20829;-71
2022/04/15 01:21:49;;;;;;;8.98;7.20;;;;;;;;;;8197300;28;20294;-70
2022/04/15 01:25:49;;;;;;;10.60;7.57;;;;;;;;;;8196757;28;20023;-70
2022/04/15 01:29:50;;;;;;;9.35;8.02;;;;;;;;;;8196353;28;20026;-70
2022/04/15 01:33:50;;;;;;;8.23;7.13;;;;;;;;;;8193838;28;20043;-70
2022/04/15 01:37:51;;;;;;;9.85;8.45;;;;;;;;;;8195541;28;20058;-70
2022/04/15 01:41:51;;;;;;;10.98;7.78;;;;;;;;;;8194140;28;20035;-70
2022/04/15 01:45:51;;;;;;;9.93;7.63;;;;;;;;;;8195813;28;20105;-70
2022/04/15 01:49:52;;;;;;;11.68;8.45;;;;;;;;;;8177628;28;20034;-70
2022/04/15 01:53:53;;;;;;;11.30;7.90;;;;;;;;;;8195656;28;20035;-70
2022/04/15 01:57:54;;;;;;;9.82;8.65;;;;;;;;;;8194428;28;20681;-70
2022/04/15 02:01:54;;;;;;;10.98;8.18;;;;;;;;;;8193930;28;20539;-70
2022/04/15 02:05:55;;;;;;;10.48;8.55;;;;;;;;;;8195367;28;20027;-70
2022/04/15 02:09:55;;;;;;;12.38;8.73;;;;;;;;;;8194542;28;20750;-70
2022/04/15 02:13:55;;;;;;;14.68;8.52;;;;;;;;;;8196745;28;20035;-70
2022/04/15 02:17:55;;;;;;;10.75;8.77;;;;;;;;;;8195934;28;20707;-70
2022/04/15 02:21:56;;;;;;;9.95;7.97;;;;;;;;;;8194960;28;20037;-70
2022/04/15 02:25:56;;;;;;;10.53;8.70;;;;;;;;;;8195953;28;20038;-70
2022/04/15 02:29:56;;;;;;;13.02;9.32;;;;;;;;;;8193662;28;20046;-71
2022/04/15 02:33:56;;;;;;;13.23;9.80;;;;;;;;;;8194246;28;20078;-71
2022/04/15 02:37:58;;;;;;;10.70;9.13;;;;;;;;;;8195525;28;20037;-70
2022/04/15 02:42:00;;;;;;;12.23;10.00;;;;;;;;;;8176914;28;20033;-70
2022/04/15 02:46:01;;;;;;;11.20;9.57;;;;;;;;;;8195934;28;20069;-71
2022/04/15 02:50:03;;;;;;;15.02;9.77;;;;;;;;;;8195277;28;20018;-70
2022/04/15 02:54:03;;;;;;;13.23;9.80;;;;;;;;;;8193809;28;20781;-71
2022/04/15 02:58:03;;;;;;;14.02;10.77;;;;;;;;;;8193933;28;20118;-70
2022/04/15 03:02:04;;;;;;;17.50;10.80;;;;;;;;;;8193885;28;20085;-70
2022/04/15 03:06:04;;;;;;;13.15;10.68;;;;;;;;;;8193269;28;20062;-70
2022/04/15 03:10:05;;;;;;;15.45;11.07;;;;;;;;;;8192668;28;20050;-70
2022/04/15 03:14:06;;;;;;;11.65;10.40;;;;;;;;;;8194002;28;20066;-69
2022/04/15 03:18:06;;;;;;;16.73;10.95;;;;;;;;;;8193362;28;20047;-70
2022/04/15 03:22:06;;;;;;;15.40;11.88;;;;;;;;;;8191712;28;20081;-70
2022/04/15 03:26:07;;;;;;;15.48;11.88;;;;;;;;;;8194581;28;20022;-69
2022/04/15 03:30:07;;;;;;;16.63;12.30;;;;;;;;;;8194053;28;20041;-70
2022/04/15 03:34:07;;;;;;;17.83;13.03;;;;;;;;;;8193333;28;20037;-70
2022/04/15 03:38:08;;;;;;;15.38;11.77;;;;;;;;;;8195667;28;20259;-69
2022/04/15 03:42:08;;;;;;;15.48;13.05;;;;;;;;;;8191007;28;20054;-70
2022/04/15 03:46:08;;;;;;;16.50;12.27;;;;;;;;;;8193374;28;20341;-70
2022/04/15 03:50:09;;;;;;;18.35;13.15;;;;;;;;;;8173594;28;20846;-70
2022/04/15 03:54:09;;;;;;;15.07;11.63;;;;;;;;;;8192380;28;20468;-69
2022/04/15 03:58:13;;;;;;;21.35;14.43;;;;;;;;;;8193525;28;20821;-70
2022/04/15 04:02:13;;;;;;;18.35;13.32;;;;;;;;;;8191918;28;20816;-70
2022/04/15 04:06:13;;;;;;;21.52;14.23;;;;;;;;;;8193492;28;20069;-70
2022/04/15 04:10:14;;;;;;;18.65;14.60;;;;;;;;;;8193007;28;20045;-70
2022/04/15 04:14:14;;;;;;;19.63;14.43;;;;;;;;;;8193820;28;20192;-70
2022/04/15 04:18:17;;;;;;;19.35;15.02;;;;;;;;;;8175731;28;20046;-70
2022/04/15 04:22:18;;;;;;;20.60;14.70;;;;;;;;;;8192247;28;20027;-70
2022/04/15 04:26:18;;;;;;;20.50;14.53;;;;;;;;;;8191878;28;20269;-69
2022/04/15 04:30:18;;;;;;;16.45;14.52;;;;;;;;;;8191038;28;20549;-70
2022/04/15 04:34:18;;;;;;;21.05;14.40;;;;;;;;;;8193758;28;20033;-70
2022/04/15 04:38:19;;;;;;;24.02;16.63;;;;;;;;;;8192674;28;20030;-69
2022/04/15 04:42:19;;;;;;;20.90;14.75;;;;;;;;;;8192637;28;20092;-69
2022/04/15 04:46:19;;;;;;;19.60;15.65;;;;;;;;;;8196307;28;20504;-70
2022/04/15 04:50:20;;;;;;;20.58;15.85;;;;;;;;;;8196030;28;20141;-70
2022/04/15 04:54:20;;;;;;;24.40;16.55;;;;;;;;;;8199717;28;20049;-69
2022/04/15 04:58:20;;;;;;;18.17;15.13;;;;;;;;;;8196642;28;20035;-69
2022/04/15 05:02:20;;;;;;;21.55;17.20;;;;;;;;;;8195418;28;20298;-69
2022/04/15 05:06:20;;;;;;;21.55;16.98;;;;;;;;;;8198125;28;20434;-68
2022/04/15 05:10:22;;;;;;;21.27;16.43;;;;;;;;;;8180291;28;20027;-68
2022/04/15 05:14:22;;;;;;;20.55;15.68;;;;;;;;;;8196170;28;20344;-67
2022/04/15 05:18:22;;;;;;;22.42;17.33;;;;;;;;;;8195203;28;20059;-68
2022/04/15 05:22:23;;;;;;;18.23;15.07;;;;;;;;;;8197394;28;20031;-68
2022/04/15 05:26:23;;;;;;;20.60;15.95;;;;;;;;;;8180604;28;20130;-69
2022/04/15 05:30:24;;;;;;;22.15;15.68;;;;;;;;;;8193718;28;20482;-69
2022/04/15 05:34:24;;;;;;;22.35;17.42;;;;;;;;;;8196334;28;20153;-69
2022/04/15 05:38:24;;;;;;;23.65;18.02;;;;;;;;;;8195789;28;20034;-69
2022/04/15 05:42:28;;;;;;;21.38;17.88;;;;;;;;;;8195784;28;20041;-69
2022/04/15 05:46:28;;;;;;;27.48;18.02;;;;;;;;;;8196705;28;20031;-69
2022/04/15 05:50:28;;;;;;;24.00;18.55;;;;;;;;;;8196825;28;20720;-68
2022/04/15 05:54:29;;;;;;;23.25;17.33;;;;;;;;;;8195043;28;20059;-69
2022/04/15 05:58:29;;;;;;;23.40;17.03;;;;;;;;;;8193933;28;20034;-68
2022/04/15 06:02:29;;;;;;;21.00;17.13;;;;;;;;;;8193607;28;20096;-68
2022/04/15 06:06:30;;;;;;;21.87;16.23;;;;;;;;;;8197171;28;20288;-68
2022/04/15 06:10:30;;;;;;;20.57;16.17;;;;;;;;;;8193815;28;20022;-69
2022/04/15 06:14:33;;;;;;;19.35;15.13;;;;;;;;;;8194623;28;20262;-69
2022/04/15 06:18:36;;;;;;;22.70;15.43;;;;;;;;;;8191004;28;21188;-69
2022/04/15 06:22:36;;;;;;;16.58;14.75;;;;;;;;;;8193612;28;20118;-69
2022/04/15 06:26:37;;;;;;;17.52;14.82;;;;;;;;;;8193412;28;20054;-68
2022/04/15 06:30:37;;;;;;;17.75;13.45;;;;;;;;;;8192149;28;20976;-69
2022/04/15 06:34:37;;;;;;;20.30;15.20;;;;;;;;;;8195754;28;20065;-69
2022/04/15 06:38:37;;;;;;;16.88;12.88;;;;;;;;;;8195852;28;20042;-69
2022/04/15 06:42:37;;;;;;;16.80;13.57;;;;;;;;;;8192794;28;20061;-69
2022/04/15 06:46:38;;;;;;;16.08;13.00;;;;;;;;;;8193139;28;20039;-68
2022/04/15 06:50:38;;;;;;;15.20;11.30;;;;;;;;;;8193420;28;20037;-69
2022/04/15 06:54:38;;;;;;;16.42;12.32;;;;;;;;;;8194474;28;20289;-69
2022/04/15 06:58:39;;;;;;;13.88;11.18;;;;;;;;;;8195063;28;20137;-69
2022/04/15 07:02:39;;;;;;;14.83;10.50;;;;;;;;;;8189933;28;20043;-69
2022/04/15 07:06:40;;;;;;;12.80;10.57;;;;;;;;;;8192708;28;20352;-69
2022/04/15 07:10:40;;;;;;;13.38;10.25;;;;;;;;;;8193363;28;20320;-69
2022/04/15 07:14:40;;;;;;;12.63;9.90;;;;;;;;;;8193035;28;20801;-68
2022/04/15 07:18:40;;;;;;;13.68;9.00;;;;;;;;;;8190997;28;20783;-69
2022/04/15 07:22:41;;;;;;;11.63;8.95;;;;;;;;;;8192717;28;20030;-69
2022/04/15 07:26:41;;;;;;;10.77;7.80;;;;;;;;;;8188946;28;20027;-69
2022/04/15 07:30:41;;;;;;;8.83;6.63;;;;;;;;;;8192742;28;20031;-70
2022/04/15 07:34:41;;;;;;;7.70;5.90;;;;;;;;;;8190753;28;20274;-69
2022/04/15 07:38:42;;;;;;;6.65;6.03;;;;;;;;;;8193417;28;20070;-69
2022/04/15 07:42:42;;;;;;;8.77;7.03;;;;;;;;;;8192254;28;20026;-70
2022/04/15 07:46:43;;;;;;;8.07;5.65;;;;;;;;;;8189454;28;20031;-69
2022/04/15 07:50:45;;;;;;;10.02;5.75;;;;;;;;;;8191782;28;20030;-69
2022/04/15 07:54:46;;;;;;;6.00;5.00;;;;;;;;;;8191736;28;20149;-72
2022/04/15 07:58:46;;;;;;;6.30;4.75;;;;;;;;;;8189531;28;20038;-69
2022/04/15 08:02:46;;;;;;;6.20;4.47;;;;;;;;;;8190140;28;20101;-69
2022/04/15 08:06:47;;;;;;;7.00;4.93;;;;;;;;;;8190389;28;20034;-69
2022/04/15 08:10:53;;;;;;;7.83;5.37;;;;;;;;;;8190908;28;20035;-69
2022/04/15 08:14:53;;;;;;;7.82;5.57;;;;;;;;;;8189996;28;20368;-69
2022/04/15 08:18:56;;;;;;;6.88;5.25;;;;;;;;;;8190699;28;20042;-69
2022/04/15 08:22:56;;;;;;;7.65;5.55;;;;;;;;;;8197495;28;20022;-69
2022/04/15 08:26:57;;;;;;;9.75;6.32;;;;;;;;;;8195748;28;20104;-69
2022/04/15 08:30:57;;;;;;;6.60;5.40;;;;;;;;;;8194936;28;20035;-69
2022/04/15 08:34:58;;;;;;;8.45;6.70;;;;;;;;;;8197250;28;20749;-69
2022/04/15 08:38:58;;;;;;;12.57;7.53;;;;;;;;;;8197023;28;20035;-70
2022/04/15 08:43:00;;;;;;;8.87;6.00;;;;;;;;;;8196332;28;20027;-69
2022/04/15 08:47:01;;;;;;;7.13;5.90;;;;;;;;;;8194788;28;20282;-69
2022/04/15 08:51:02;;;;;;;8.45;6.47;;;;;;;;;;8194858;28;20365;-69
2022/04/15 08:55:03;;;;;;;7.85;5.93;;;;;;;;;;8196336;28;20023;-69
2022/04/15 08:59:04;;;;;;;8.00;5.72;;;;;;;;;;8196877;28;20041;-69
2022/04/15 09:03:04;;;;;;;6.57;5.15;;;;;;;;;;8194356;28;20039;-69
2022/04/15 09:07:05;;;;;;;7.00;4.73;;;;;;;;;;8196905;28;20026;-69
2022/04/15 09:11:05;;;;;;;4.95;4.10;;;;;;;;;;8195927;28;20058;-69
2022/04/15 09:15:06;;;;;;;5.53;4.10;;;;;;;;;;8196034;28;20030;-70
2022/04/15 09:19:07;;;;;;;4.95;4.00;;;;;;;;;;8195782;28;20473;-69
2022/04/15 09:23:08;;;;;;;5.43;3.20;;;;;;;;;;8194766;28;20388;-69
2022/04/15 09:27:08;;;;;;;4.07;2.83;;;;;;;;;;8178249;28;20031;-69
2022/04/15 09:31:13;;;;;;;4.43;3.00;;;;;;;;;;8195481;28;20033;-69
2022/04/15 09:35:16;;;;;;;4.45;3.13;;;;;;;;;;8192027;28;20951;-69
2022/04/15 09:39:16;;;;;;;3.55;1.88;;;;;;;;;;8193000;28;20022;-69
2022/04/15 09:43:16;;;;;;;1.35;1.20;;;;;;;;;;8193146;28;20320;-69
2022/04/15 09:47:17;;;;;;;2.03;1.02;;;;;;;;;;8193194;28;20078;-69
2022/04/15 09:51:20;;;;;;;1.25;1.05;;;;;;;;;;8194679;28;20019;-70
2022/04/15 09:55:20;;;;;;;;;;;;;;;;;;8195958;28;20034;-70
2022/04/15 09:59:21;;;;;;;2.22;1.40;;;;;;;;;;8194161;28;19940;-70
2022/04/15 10:03:22;;;;;;;2.50;1.20;;;;;;;;;;8193534;28;20579;-70
2022/04/15 10:07:22;;;;;;;0.95;0.90;;;;;;;;;;8194834;28;20034;-69
2022/04/15 10:11:23;;;;;;;1.70;1.00;;;;;;;;;;8191731;28;20026;-69
2022/04/15 10:15:24;;;;;;;1.83;1.02;;;;;;;;;;8194248;28;20393;-69
2022/04/15 10:19:25;;;;;;;1.27;0.90;;;;;;;;;;8193413;28;20586;-69
2022/04/15 10:23:25;;;;;;;2.67;1.13;;;;;;;;;;8193754;28;20162;-69
2022/04/15 10:27:30;;;;;;;0.85;0.75;;;;;;;;;;8191806;28;20431;-70
2022/04/15 10:31:37;;;;;;;3.80;1.13;;;;;;;;;;8193312;28;20034;-69
2022/04/15 10:35:37;;;;;;;1.33;0.82;;;;;;;;;;8193300;28;20046;-69
2022/04/15 10:39:45;;;;;;;1.60;1.08;;;;;;;;;;8193913;28;20023;-69
2022/04/15 10:43:57;;;;;;;1.55;1.10;;;;;;;;;;8191256;28;20037;-69
2022/04/15 10:48:00;;;;;;;1.48;1.00;;;;;;;;;;8193032;28;20991;-69
2022/04/15 10:52:02;;;;;;;1.08;0.98;;;;;;;;;;8192803;28;20913;-69
2022/04/15 10:56:09;;;;;;;1.35;1.10;;;;;;;;;;8193715;28;20030;-69
2022/04/15 11:04:41;;;;;;;3.55;0.98;;;;;;;;;;8191743;28;20077;-69
2022/04/15 11:08:45;;;;;;;3.83;0.82;;;;;;;;;;8193815;28;20786;-69
2022/04/15 11:12:45;;;;;;;1.85;0.90;;;;;;;;;;8192170;28;20038;-69
2022/04/15 11:16:48;;;;;;;1.10;0.75;;;;;;;;;;8193003;28;20043;-69
2022/04/15 11:20:48;;;;;;;1.90;1.05;;;;;;;;;;8190358;28;20035;-69
2022/04/15 11:24:48;;;;;;;0.82;0.80;;;;;;;;;;8193331;28;20041;-69
2022/04/15 11:28:50;;;;;;;1.30;0.80;;;;;;;;;;8192457;28;20843;-69
2022/04/15 11:32:51;;;;;;;0.85;0.80;;;;;;;;;;8191241;28;20077;-69
2022/04/15 11:36:56;;;;;;;0.60;0.60;;;;;;;;;;8193347;28;20022;-69
2022/04/15 11:40:57;;;;;;;1.48;0.70;;;;;;;;;;8191583;28;20185;-69
2022/04/15 11:44:58;;;;;;;2.65;0.77;;;;;;;;;;8192410;28;20129;-69
2022/04/15 11:48:58;;;;;;;0.98;0.68;;;;;;;;;;8189137;28;20071;-69
2022/04/15 11:53:05;;;;;;;3.13;0.60;;;;;;;;;;8194710;28;20030;-69
2022/04/15 11:57:06;;;;;;;1.27;0.82;;;;;;;;;;8197269;28;20781;-69
2022/04/15 12:01:06;;;;;;;0.98;0.70;;;;;;;;;;8197875;28;20624;-69
2022/04/15 12:05:06;;;;;;;1.10;0.70;;;;;;;;;;8195347;28;20023;-69
2022/04/15 12:09:08;;;;;;;0.65;0.65;;;;;;;;;;8197587;28;20023;-69
2022/04/15 12:13:08;;;;;;;0.70;0.70;;;;;;;;;;8197610;28;20031;-69
2022/04/15 12:17:11;;;;;;;1.63;0.90;;;;;;;;;;8195486;28;20122;-69
2022/04/15 12:21:11;;;;;;;0.65;0.60;;;;;;;;;;8197896;28;20988;-69
2022/04/15 12:25:18;;;;;;;1.77;0.60;;;;;;;;;;8197736;28;20042;-69
2022/04/15 12:33:47;;;;;;;1.97;0.80;;;;;;;;;;8196229;28;20085;-69
2022/04/15 12:37:53;;;;;;;2.70;0.90;;;;;;;;;;8197381;28;20803;-69
2022/04/15 12:41:54;;;;;;;1.92;0.90;;;;;;;;;;8194810;28;20038;-69
2022/04/15 12:45:54;;;;;;;2.53;1.10;;;;;;;;;;8198034;28;20038;-69
2022/04/15 12:50:15;;;;;;;3.25;0.95;;;;;;;;;;8197835;28;20504;-69
2022/04/15 12:54:15;;;;;;;1.92;1.10;;;;;;;;;;8195380;28;20022;-69
2022/04/15 12:58:26;;;;;;;3.83;1.20;;;;;;;;;;8196941;28;20031;-69
2022/04/15 13:02:30;;;;;;;2.55;1.17;;;;;;;;;;8193905;28;20042;-69
2022/04/15 13:06:30;;;;;;;3.03;1.10;;;;;;;;;;8196092;28;20542;-69
2022/04/15 13:10:30;;;;;;;3.00;1.25;;;;;;;;;;8196075;28;20054;-69
2022/04/15 13:14:30;;;;;;;1.73;1.10;;;;;;;;;;8196456;28;20486;-69
2022/04/15 13:18:30;;;;;;;2.67;1.10;;;;;;;;;;8192845;28;20070;-69
2022/04/15 13:22:30;;;;;;;1.80;1.20;;;;;;;;;;8194121;28;20059;-69
2022/04/15 13:26:31;;;;;;;2.38;1.15;;;;;;;;;;8195222;28;20484;-69
2022/04/15 13:30:31;;;;;;;3.08;1.10;;;;;;;;;;8194470;28;20039;-69
2022/04/15 13:34:34;;;;;;;3.10;1.45;;;;;;;;;;8194520;28;20034;-69
2022/04/15 13:38:34;;;;;;;;;;;;;;;;;;8196668;28;20044;-69
2022/04/15 13:42:35;;;;;;;1.50;1.02;;;;;;;;;;8195398;28;20723;-69
2022/04/15 13:46:36;;;;;;;1.85;1.52;;;;;;;;;;8196028;28;20039;-69
2022/04/15 13:50:36;;;;;;;2.13;1.15;;;;;;;;;;8193142;28;20030;-69
2022/04/15 13:59:13;;;;;;;2.20;1.23;;;;;;;;;;8124678;28;20055;-70
2022/04/15 14:03:13;;;;;;;1.83;1.40;;;;;;;;;;8193549;28;20039;-69
2022/04/15 14:07:13;;;;;;;2.80;1.53;;;;;;;;;;8196907;28;20555;-69
2022/04/15 14:11:13;;;;;;;2.60;1.30;;;;;;;;;;8193341;28;20573;-69
2022/04/15 14:15:14;;;;;;;1.58;1.10;;;;;;;;;;8191643;28;20061;-69
2022/04/15 14:19:14;;;;;;;3.00;1.50;;;;;;;;;;8193194;28;20019;-69
2022/04/15 14:23:14;;;;;;;2.78;1.50;;;;;;;;;;8174743;28;20117;-69
2022/04/15 14:27:15;;;;;;;2.53;1.38;;;;;;;;;;8176257;28;20019;-69
2022/04/15 14:31:15;;;;;;;2.17;1.73;;;;;;;;;;8193292;28;20102;-69
2022/04/15 14:35:16;;;;;;;3.53;1.75;;;;;;;;;;8193800;28;20046;-69
2022/04/15 14:39:16;;;;;;;1.85;1.40;;;;;;;;;;8193489;28;20500;-69
2022/04/15 14:43:16;;;;;;;2.88;1.70;;;;;;;;;;8191299;28;20041;-69
2022/04/15 14:47:16;;;;;;;4.25;2.20;;;;;;;;;;8191904;28;20894;-69
2022/04/15 14:51:17;;;;;;;3.17;2.30;;;;;;;;;;8194135;28;20077;-69
2022/04/15 14:55:17;;;;;;;3.33;2.85;;;;;;;;;;8193443;28;20042;-69
2022/04/15 14:59:17;;;;;;;3.45;3.15;;;;;;;;;;8177643;28;21032;-70
2022/04/15 15:03:24;;;;;;;3.63;2.90;;;;;;;;;;8191119;28;20891;-69
2022/04/15 15:07:24;;;;;;;4.25;3.38;;;;;;;;;;8193161;28;20725;-69
2022/04/15 15:11:24;;;;;;;2.78;2.58;;;;;;;;;;8191718;28;20030;-69
2022/04/15 15:15:25;;;;;;;3.77;3.43;;;;;;;;;;8193124;28;20047;-69
2022/04/15 15:19:25;;;;;;;4.50;3.40;;;;;;;;;;8192576;28;20849;-69
2022/04/15 15:23:25;;;;;;;3.75;3.42;;;;;;;;;;8191505;28;20126;-69
2022/04/15 15:31:46;;;;;;;4.53;3.63;;;;;;;;;;8190794;28;20112;-69
2022/04/15 15:35:48;;;;;;;3.72;3.30;;;;;;;;;;8193268;28;20027;-69
2022/04/15 15:39:48;;;;;;;3.35;3.05;;;;;;;;;;8189007;28;20112;-69
2022/04/15 15:43:48;;;;;;;3.92;2.95;;;;;;;;;;8193452;28;20042;-69
2022/04/15 15:47:48;;;;;;;3.53;2.70;;;;;;;;;;8190694;28;20031;-69
2022/04/15 15:51:49;;;;;;;3.60;2.90;;;;;;;;;;8191716;28;20039;-68
2022/04/15 15:55:49;;;;;;;3.25;2.95;;;;;;;;;;8191157;28;20121;-69
2022/04/15 15:59:49;;;;;;;5.53;2.80;;;;;;;;;;8190506;28;20019;-69
2022/04/15 16:03:50;;;;;;;3.23;2.93;;;;;;;;;;8173448;28;20134;-69
2022/04/15 16:07:50;;;;;;;4.97;2.80;;;;;;;;;;8190298;28;20768;-69
2022/04/15 16:11:50;;;;;;;4.68;2.88;;;;;;;;;;8190879;28;20031;-69
2022/04/15 16:15:50;;;;;;;3.23;2.57;;;;;;;;;;8191540;28;20086;-69
2022/04/15 16:19:51;;;;;;;4.38;3.22;;;;;;;;;;8191219;28;20273;-69
2022/04/15 16:23:51;;;;;;;3.15;2.85;;;;;;;;;;8190950;28;20034;-69
2022/04/15 16:27:51;;;;;;;6.18;3.50;;;;;;;;;;8189580;28;20090;-69
2022/04/15 16:31:51;;;;;;;3.97;3.08;;;;;;;;;;8189098;28;20118;-69
2022/04/15 16:35:51;;;;;;;6.80;3.50;;;;;;;;;;8190444;28;20890;-69
2022/04/15 16:39:52;;;;;;;6.40;4.35;;;;;;;;;;8176398;28;20826;-68
2022/04/15 16:43:53;;;;;;;4.80;3.73;;;;;;;;;;8196206;28;20030;-69
2022/04/15 16:47:53;;;;;;;4.88;3.78;;;;;;;;;;8195956;28;20054;-69
2022/04/15 16:51:53;;;;;;;5.70;4.10;;;;;;;;;;8194577;28;20046;-69
2022/04/15 17:00:13;;;;;;;6.43;4.20;;;;;;;;;;8194314;28;20156;-69
2022/04/15 17:04:14;;;;;;;7.60;5.22;;;;;;;;;;8195359;28;20026;-69
2022/04/15 17:08:14;;;;;;;8.27;5.57;;;;;;;;;;8194817;28;20954;-69
2022/04/15 17:12:14;;;;;;;8.93;5.57;;;;;;;;;;8196780;28;20378;-69
2022/04/15 17:16:14;;;;;;;8.23;5.82;;;;;;;;;;8197130;28;20930;-68
2022/04/15 17:20:15;;;;;;;7.67;5.83;;;;;;;;;;8192982;28;20027;-68
2022/04/15 17:24:15;;;;;;;9.03;5.97;;;;;;;;;;8197212;28;20991;-69
2022/04/15 17:28:19;;;;;;;7.57;5.50;;;;;;;;;;8195819;28;20757;-69
2022/04/15 17:32:19;;;;;;;6.10;5.05;;;;;;;;;;8193665;28;20051;-69
2022/04/15 17:36:19;;;;;;;7.28;4.90;;;;;;;;;;8195677;28;20039;-69
2022/04/15 17:40:20;;;;;;;6.72;4.80;;;;;;;;;;8193216;28;20026;-69
2022/04/15 17:44:20;;;;;;;6.32;5.15;;;;;;;;;;8195404;28;20145;-68
2022/04/15 17:48:20;;;;;;;8.25;3.95;;;;;;;;;;8194976;28;20042;-69
2022/04/15 17:52:21;;;;;;;3.80;2.75;;;;;;;;;;8193994;28;20038;-69
2022/04/15 17:56:21;;;;;;;5.20;3.10;;;;;;;;;;8195682;28;20031;-69
2022/04/15 18:00:21;;;;;;;4.28;2.85;;;;;;;;;;8194066;28;20077;-69
2022/04/15 18:04:24;;;;;;;5.82;2.75;;;;;;;;;;8195915;28;20034;-68
2022/04/15 18:08:24;;;;;;;4.88;3.20;;;;;;;;;;8193477;28;20026;-69
2022/04/15 18:12:24;;;;;;;3.90;2.75;;;;;;;;;;8195534;28;20038;-69
2022/04/15 18:16:24;;;;;;;3.83;2.80;;;;;;;;;;8178946;28;20050;-68
2022/04/15 18:20:25;;;;;;;5.40;2.65;;;;;;;;;;8193241;28;20034;-68
2022/04/15 18:24:25;;;;;;;2.80;2.50;;;;;;;;;;8193894;28;20435;-69
2022/04/15 18:28:26;;;;;;;3.70;2.33;;;;;;;;;;8195637;28;20593;-69
2022/04/15 18:32:26;;;;;;;2.65;2.45;;;;;;;;;;8193777;28;20287;-69
2022/04/15 18:36:26;;;;;;;2.88;2.10;;;;;;;;;;8196805;28;20034;-69
2022/04/15 18:40:26;;;;;;;3.30;2.50;;;;;;;;;;8193248;28;20037;-69
2022/04/15 18:44:27;;;;;;;3.22;2.20;;;;;;;;;;8190205;28;20290;-69
2022/04/15 18:52:46;;;;;;;3.05;2.10;;;;;;;;;;8188065;28;20042;-69
2022/04/15 18:56:46;;;;;;;2.78;2.00;;;;;;;;;;8189934;28;20106;-68
2022/04/15 19:00:47;;;;;;;2.05;1.80;;;;;;;;;;8189485;28;20865;-69
2022/04/15 19:04:47;;;;;;;2.65;1.70;;;;;;;;;;8191355;28;20104;-70
2022/04/15 19:08:47;;;;;;;2.30;2.00;;;;;;;;;;8175877;28;20026;-71
2022/04/15 19:12:47;;;;;;;2.30;2.10;;;;;;;;;;8195417;28;20050;-70
2022/04/15 19:16:49;;;;;;;2.15;1.92;;;;;;;;;;8193906;28;20039;-70
2022/04/15 19:20:49;;;;;;;2.67;1.98;;;;;;;;;;8194012;28;20027;-70
2022/04/15 19:24:49;;;;;;;1.63;1.52;;;;;;;;;;8195121;28;20833;-70
2022/04/15 19:28:49;;;;;;;1.77;1.67;;;;;;;;;;8181060;28;20744;-70
2022/04/15 19:32:49;;;;;;;2.17;1.60;;;;;;;;;;8195559;28;20294;-70
2022/04/15 19:36:50;;;;;;;1.77;1.67;;;;;;;;;;8194438;28;20035;-70
2022/04/15 19:40:50;;;;;;;1.58;1.48;;;;;;;;;;8191337;28;20030;-70
2022/04/15 19:44:51;;;;;;;1.73;1.60;;;;;;;;;;8195742;28;20081;-70
2022/04/15 19:48:52;;;;;;;2.23;1.63;;;;;;;;;;8192260;28;20812;-71
2022/04/15 19:52:53;;;;;;;3.88;1.60;;;;;;;;;;8195441;28;20286;-70
2022/04/15 20:01:14;;;;;;;1.80;1.70;;;;;;;;;;8194169;28;20113;-70
2022/04/15 20:05:17;;;;;;;2.70;1.70;;;;;;;;;;8185012;28;20022;-70
2022/04/15 20:09:17;;;;;;;7.40;2.03;;;;;;;;;;8200272;28;20028;-70
2022/04/15 20:13:17;;;;;;;1.98;1.77;;;;;;;;;;8198136;28;20031;-70
2022/04/15 20:17:18;;;;;;;1.88;1.52;;;;;;;;;;8204212;28;20045;-70
2022/04/15 20:21:18;;;;;;;2.13;1.88;;;;;;;;;;8200716;28;21027;-70
2022/04/15 20:25:18;;;;;;;1.60;1.50;;;;;;;;;;8203881;28;20038;-70
2022/04/15 20:29:19;;;;;;;1.73;1.63;;;;;;;;;;8203599;28;20133;-70
2022/04/15 20:33:19;;;;;;;1.80;1.65;;;;;;;;;;8204321;28;20047;-70
2022/04/15 20:37:20;;;;;;;1.67;1.58;;;;;;;;;;8203729;28;20035;-70
2022/04/15 20:41:20;;;;;;;2.00;1.80;;;;;;;;;;8201382;28;20042;-70
2022/04/15 20:45:23;;;;;;;2.20;2.03;;;;;;;;;;8201864;28;20036;-70
2022/04/15 20:53:42;;;;;;;2.30;1.70;;;;;;;;;;8198430;28;20085;-70
2022/04/15 20:57:43;;;;;;;1.88;1.73;;;;;;;;;;8199167;28;20035;-70
2022/04/15 21:01:44;;;;;;;2.42;1.70;;;;;;;;;;8198928;28;20700;-70
2022/04/15 21:05:45;;;;;;;2.05;1.75;;;;;;;;;;8198793;28;20031;-70
2022/04/15 21:09:46;;;;;;;1.80;1.70;;;;;;;;;;8198998;28;20077;-70
2022/04/15 21:13:47;;;;;;;1.95;1.70;;;;;;;;;;8197446;28;20034;-70
2022/04/15 21:17:47;;;;;;;1.90;1.50;;;;;;;;;;8196514;28;20042;-70
2022/04/15 21:21:47;;;;;;;2.63;1.40;;;;;;;;;;8198432;28;21001;-70
2022/04/15 21:25:47;;;;;;;1.40;1.30;;;;;;;;;;8197924;28;20035;-70
2022/04/15 21:29:48;;;;;;;1.73;1.50;;;;;;;;;;8198152;28;20027;-71
2022/04/15 21:33:48;;;;;;;1.70;1.60;;;;;;;;;;8200697;28;20755;-70
2022/04/15 21:37:48;;;;;;;2.00;1.70;;;;;;;;;;8200692;28;20274;-70
2022/04/15 21:41:48;;;;;;;2.28;1.58;;;;;;;;;;8197579;28;20062;-69
2022/04/15 21:45:49;;;;;;;4.22;1.90;;;;;;;;;;8198479;28;20049;-70
2022/04/15 21:49:49;;;;;;;2.08;1.67;;;;;;;;;;8199877;28;20038;-71
2022/04/15 21:53:51;;;;;;;2.33;2.13;;;;;;;;;;8198164;28;20471;-70
2022/04/15 21:57:51;;;;;;;2.08;1.95;;;;;;;;;;8199820;28;20027;-70
2022/04/15 22:01:52;;;;;;;1.87;1.77;;;;;;;;;;8198694;28;20118;-70
2022/04/15 22:05:53;;;;;;;2.00;1.80;;;;;;;;;;8197852;28;20023;-69
2022/04/15 22:09:53;;;;;;;2.35;2.20;;;;;;;;;;8184139;28;20039;-70
2022/04/15 22:13:53;;;;;;;2.03;1.90;;;;;;;;;;8185473;28;20486;-70
2022/04/15 22:17:53;;;;;;;3.05;1.90;;;;;;;;;;8196293;28;20042;-70
2022/04/15 22:21:53;;;;;;;2.50;2.30;;;;;;;;;;8199676;28;20023;-70
2022/04/15 22:25:54;;;;;;;2.22;2.00;;;;;;;;;;8199255;28;20027;-70
2022/04/15 22:29:54;;;;;;;2.40;2.20;;;;;;;;;;8197018;28;20023;-70
2022/04/15 22:33:54;;;;;;;2.13;1.93;;;;;;;;;;8200677;28;20034;-70
2022/04/15 22:37:55;;;;;;;2.42;2.22;;;;;;;;;;8197065;28;20396;-71
2022/04/15 22:41:56;;;;;;;2.58;2.10;;;;;;;;;;8199000;28;20877;-70
2022/04/15 22:45:56;;;;;;;2.30;2.10;;;;;;;;;;8200731;28;20173;-70
2022/04/15 22:49:57;;;;;;;2.38;2.17;;;;;;;;;;8181088;28;20027;-70
2022/04/15 22:53:57;;;;;;;2.58;1.90;;;;;;;;;;8180599;28;20749;-70
2022/04/15 22:57:58;;;;;;;2.58;2.38;;;;;;;;;;8197190;28;20532;-70
2022/04/15 23:01:59;;;;;;;2.75;2.53;;;;;;;;;;8198936;28;20043;-70
2022/04/15 23:05:59;;;;;;;3.53;2.38;;;;;;;;;;8182069;28;20288;-70
2022/04/15 23:10:00;;;;;;;2.60;2.40;;;;;;;;;;8198164;28;20022;-70
2022/04/15 23:14:01;;;;;;;2.75;2.53;;;;;;;;;;8199897;28;20166;-70
2022/04/15 23:18:01;;;;;;;2.80;2.50;;;;;;;;;;8201371;28;20051;-70
2022/04/15 23:22:02;;;;;;;2.67;2.47;;;;;;;;;;8197176;28;20045;-70
2022/04/15 23:26:03;;;;;;;4.38;2.92;;;;;;;;;;8200107;28;20030;-71
2022/04/15 23:30:08;;;;;;;3.10;2.45;;;;;;;;;;8197179;28;20563;-71
2022/04/15 23:34:08;;;;;;;3.10;2.58;;;;;;;;;;8195960;28;20109;-70
2022/04/15 23:38:08;;;;;;;5.15;2.70;;;;;;;;;;8197059;28;20034;-71
2022/04/15 23:42:10;;;;;;;3.13;2.50;;;;;;;;;;8197189;28;20037;-70
2022/04/15 23:50:30;;;;;;;4.30;3.00;;;;;;;;;;8196898;28;20060;-70
2022/04/15 23:54:30;;;;;;;4.20;2.72;;;;;;;;;;8191046;28;20038;-70
2022/04/15 23:58:31;;;;;;;2.97;2.70;;;;;;;;;;8198092;28;20140;-70
